Aérodrome :
LOGIN :

S'inscrire | Disclaimer

   EN    FR    IT 

 










Légende :    VFR   VFR Marginal   IFR   IFR Intensif   IFR Très Intensif
Visi : 
Plafond : 
>= 8 km
>= 3000ft
5 à 8 km
1000 à 3000 ft
1500m à 5 km
500 à 1000 ft
800 à 1500m
200 à 500 ft
< 800m
< 200 ft
Symboles :   Orages  Brouillard  Fortes neiges  Fortes précipitations  Vent > 20 kt
SIGMETs :   Divers  Orages  Givrage  Turbulence  Onde Orograph.  Cendres Volcan.






- Altitude de l'aérodrome : 220 ft
- Code IATA : CWL


EGFF - Cardiff Rhoose

DERNIER METAR :
  • 200650Z AUTO 20004KT 160V230 9999 -RA NCD 12/10 Q1019

METARs EXPIRÉS :
  • 200620Z AUTO 20004KT 9999 -RA NCD 12/10 Q1019
  • 200550Z AUTO 19004KT 9999 SCT048 12/10 Q1019
  • 200520Z AUTO 19004KT 9999 FEW049 12/10 Q1019
  • 200450Z AUTO 20004KT 9999 NCD 12/10 Q1019
  • 200420Z AUTO 19003KT 9999 NCD 12/10 Q1018

TAF TAF EGFF
Valide du 20 à 06h jusqu'au 21 à 06h UTC


200502Z 2006/2106 VRB04KT 9999 SCT022
BECMG 2006/2009 22012KT
PROB30
TEMPO 2006/2009 8000 -RA BKN012
TEMPO 2009/2017 6000 SHRA BKN012
BECMG 2012/2015 25018G28KT
PROB30
TEMPO 2012/2015 3000 +SHRA
BECMG 2019/2022 26012KT
TEMPO 2021/2106 BKN012
ATIS : +44 1446 729 319



MET'MAP, la Météo Aéronautique d'un coup d'oeil ! - Copyright ORBIFLY Décembre 2007 - Disclaimer

ORBIFLY MET'MAP TEAM :

Programmation & Développement : Alexandra Zaïnal
Sur une idée originale de : Baudouin d'Aumeries
Soutien technique & logistique : Manuel Goepfert
Assistance : Marc-Olivier Méhu

Contact : metmap@orbifly.com




SOURCES & CREDITS :

   NOAA